Time;durP1;ratioP1;P1;durP2;ratioP2;P2;SDS_P1;SDS_P2;PMS_P1;PMS_P2;Temp;Humidity;BMP_temperature;BMP_pressure;BME280_temperature;BME280_humidity;BME280_pressure;Samples;Min_cycle;Max_cycle;Signal;HPM_P1;HPM_P2
2022/08/22 04:49:21;;;;;;;;;;;24.70;85.30;;;;;;5037733;28;20431;-81
2022/08/22 04:51:50;;;;;;;;;;;24.70;85.40;;;;;;5041590;28;20008;-81
2022/08/22 04:54:24;;;;;;;;;;;24.70;85.60;;;;;;5043507;28;20344;-83
2022/08/22 04:56:59;;;;;;;;;;;24.70;85.70;;;;;;5038482;28;20012;-84
2022/08/22 04:59:28;;;;;;;;;;;24.80;86.00;;;;;;5037969;28;19967;-83
2022/08/22 05:01:56;;;;;;;;;;;24.80;86.10;;;;;;5040111;28;20015;-84
2022/08/22 05:04:27;;;;;;;;;;;24.80;86.20;;;;;;5040398;28;19927;-82
2022/08/22 05:06:56;;;;;;;;;;;24.80;86.40;;;;;;5039148;28;19988;-81
2022/08/22 05:09:25;;;;;;;;;;;24.80;86.50;;;;;;5039054;28;19988;-81
2022/08/22 05:11:53;;;;;;;;;;;24.80;86.60;;;;;;5044045;28;20347;-80
2022/08/22 05:14:23;;;;;;;;;;;24.80;86.70;;;;;;5042974;28;19984;-81
2022/08/22 05:16:52;;;;;;;;;;;24.80;86.90;;;;;;5041059;28;19931;-80
2022/08/22 05:19:21;;;;;;;;;;;24.80;87.10;;;;;;5041358;28;19928;-81
2022/08/22 05:21:50;;;;;;;;;;;24.80;87.20;;;;;;5039914;28;20008;-81
2022/08/22 05:24:21;;;;;;;;;;;24.80;87.40;;;;;;5039380;28;19920;-81
2022/08/22 05:26:49;;;;;;;;;;;24.80;87.60;;;;;;5038577;28;20012;-81
2022/08/22 05:29:19;;;;;;;;;;;24.80;87.70;;;;;;5038282;28;19921;-81
2022/08/22 05:31:48;;;;;;;;;;;24.80;87.90;;;;;;5038421;28;20292;-81
2022/08/22 05:34:16;;;;;;;;;;;24.80;88.10;;;;;;5037989;28;19927;-81
2022/08/22 05:36:45;;;;;;;;;;;24.80;88.30;;;;;;5038318;28;20020;-81
2022/08/22 05:39:13;;;;;;;;;;;24.80;88.40;;;;;;5037682;28;19960;-81
2022/08/22 05:41:41;;;;;;;;;;;24.80;88.50;;;;;;5038187;28;19925;-81
2022/08/22 05:44:14;;;;;;;;;;;24.80;88.70;;;;;;5038707;28;19921;-81
2022/08/22 05:46:42;;;;;;;;;;;24.80;88.90;;;;;;5038416;28;19927;-81
2022/08/22 05:49:17;;;;;;;;;;;24.80;89.00;;;;;;5038067;28;20439;-82
2022/08/22 05:51:47;;;;;;;;;;;24.80;89.20;;;;;;5038704;28;20020;-82
2022/08/22 05:54:18;;;;;;;;;;;24.80;89.30;;;;;;5036337;28;19921;-81
2022/08/22 05:56:47;;;;;;;;;;;24.80;89.60;;;;;;5034979;28;19925;-81
2022/08/22 05:59:21;;;;;;;;;;;24.80;89.80;;;;;;5034851;28;19927;-81
2022/08/22 06:01:54;;;;;;;;;;;24.80;90.00;;;;;;5035155;28;19924;-81
2022/08/22 06:04:26;;;;;;;;;;;24.80;90.10;;;;;;5035040;28;19988;-81
2022/08/22 06:06:56;;;;;;;;;;;24.80;90.10;;;;;;5035029;28;19943;-80
2022/08/22 06:09:29;;;;;;;;;;;24.80;90.10;;;;;;5035151;28;20373;-80
2022/08/22 06:11:58;;;;;;;;;;;24.80;90.10;;;;;;5034887;28;19921;-81
2022/08/22 06:14:28;;;;;;;;;;;24.80;90.10;;;;;;5035050;28;20015;-81
2022/08/22 06:16:58;;;;;;;;;;;24.80;90.10;;;;;;5035064;28;20291;-80
2022/08/22 06:19:25;;;;;;;;;;;24.80;90.30;;;;;;5035335;28;19921;-81
2022/08/22 06:21:54;;;;;;;;;;;24.80;90.40;;;;;;5035018;28;19921;-81
2022/08/22 06:24:23;;;;;;;;;;;24.70;90.40;;;;;;5035227;28;19972;-81
2022/08/22 06:26:53;;;;;;;;;;;24.80;90.60;;;;;;5035078;28;19971;-80
2022/08/22 06:29:28;;;;;;;;;;;24.80;90.60;;;;;;5034616;28;19932;-77
2022/08/22 06:31:55;;;;;;;;;;;24.80;90.70;;;;;;5034506;28;19928;-76
2022/08/22 06:34:24;;;;;;;;;;;24.80;90.80;;;;;;5034217;28;19921;-76
2022/08/22 06:36:51;;;;;;;;;;;24.80;90.90;;;;;;5034100;28;19924;-77
2022/08/22 06:39:20;;;;;;;;;;;24.80;91.00;;;;;;5033942;28;20287;-76
2022/08/22 06:41:49;;;;;;;;;;;24.80;91.00;;;;;;5033890;28;19921;-76
2022/08/22 06:44:20;;;;;;;;;;;24.80;91.10;;;;;;5034162;28;19921;-77
2022/08/22 06:46:48;;;;;;;;;;;24.80;91.20;;;;;;5034415;28;19960;-77
2022/08/22 06:49:15;;;;;;;;;;;24.80;91.30;;;;;;5034147;28;19951;-77
2022/08/22 06:51:42;;;;;;;;;;;24.80;91.40;;;;;;5033806;28;19921;-76
2022/08/22 06:54:15;;;;;;;;;;;24.80;91.40;;;;;;5033871;28;19921;-76
2022/08/22 06:56:43;;;;;;;;;;;24.80;91.50;;;;;;5033822;28;20356;-76
2022/08/22 06:59:13;;;;;;;;;;;24.80;91.60;;;;;;5033881;28;20291;-77
2022/08/22 07:01:45;;;;;;;;;;;24.80;91.70;;;;;;5033937;28;19921;-76
2022/08/22 07:04:11;;;;;;;;;;;24.80;91.80;;;;;;5037211;28;20355;-76
2022/08/22 07:06:40;;;;;;;;;;;24.80;91.90;;;;;;5038078;28;19920;-76
2022/08/22 07:09:07;;;;;;;;;;;24.80;91.90;;;;;;5038750;28;19943;-76
2022/08/22 07:11:36;;;;;;;;;;;24.80;92.00;;;;;;5039293;28;19921;-77
2022/08/22 07:14:04;;;;;;;;;;;24.80;92.10;;;;;;5042387;28;19921;-77
2022/08/22 07:16:33;;;;;;;;;;;24.80;92.10;;;;;;5043123;28;20345;-75
2022/08/22 07:19:02;;;;;;;;;;;24.80;92.20;;;;;;5042435;28;19928;-77
2022/08/22 07:21:30;;;;;;;;;;;24.80;92.30;;;;;;5042599;28;19921;-77
2022/08/22 07:23:59;;;;;;;;;;;24.80;92.30;;;;;;5042445;28;19921;-76
2022/08/22 07:26:29;;;;;;;;;;;24.80;92.50;;;;;;5042105;28;20388;-78
2022/08/22 07:28:59;;;;;;;;;;;24.80;92.70;;;;;;5041903;28;19921;-77
2022/08/22 07:31:33;;;;;;;;;;;24.80;92.70;;;;;;5042275;28;19956;-77
2022/08/22 07:34:06;;;;;;;;;;;24.80;92.70;;;;;;5042067;28;19924;-76
2022/08/22 07:36:39;;;;;;;;;;;24.80;92.70;;;;;;5041912;28;20319;-77
2022/08/22 07:39:14;;;;;;;;;;;24.80;92.70;;;;;;5041361;28;19927;-75
2022/08/22 07:41:49;;;;;;;;;;;24.80;92.70;;;;;;5042462;28;19988;-76
2022/08/22 07:44:18;;;;;;;;;;;24.80;92.70;;;;;;5042803;28;19920;-76
2022/08/22 07:46:50;;;;;;;;;;;24.80;92.80;;;;;;5043801;28;19974;-80
2022/08/22 07:49:21;;;;;;;;;;;24.80;92.80;;;;;;5041918;28;19928;-74
2022/08/22 07:51:50;;;;;;;;;;;24.80;92.80;;;;;;5040767;28;19924;-74
2022/08/22 07:54:22;;;;;;;;;;;24.80;92.80;;;;;;5042318;28;19927;-80
2022/08/22 07:56:53;;;;;;;;;;;24.80;92.80;;;;;;5042028;28;19921;-77
2022/08/22 07:59:21;;;;;;;;;;;24.70;92.70;;;;;;5043495;28;19931;-82
2022/08/22 08:01:50;;;;;;;;;;;24.80;92.70;;;;;;5043970;28;19921;-81
2022/08/22 08:04:20;;;;;;;;;;;24.70;92.60;;;;;;5044062;28;20036;-80
2022/08/22 08:06:48;;;;;;;;;;;24.70;92.60;;;;;;5041264;28;20375;-76
2022/08/22 08:09:16;;;;;;;;;;;24.70;92.60;;;;;;5045225;28;19927;-81
2022/08/22 08:11:43;;;;;;;;;;;24.70;92.60;;;;;;5044210;28;19921;-79
2022/08/22 08:14:13;;;;;;;;;;;24.70;92.60;;;;;;5043088;28;20356;-80
2022/08/22 08:16:42;;;;;;;;;;;24.80;92.70;;;;;;5040255;28;19921;-75
2022/08/22 08:19:11;;;;;;;;;;;24.70;92.60;;;;;;5037919;28;19943;-75
2022/08/22 08:21:41;;;;;;;;;;;24.70;92.60;;;;;;5035989;28;20016;-77
2022/08/22 08:24:12;;;;;;;;;;;24.70;92.60;;;;;;5035970;28;19921;-77
2022/08/22 08:28:32;;;;;;;;;;;24.70;92.50;;;;;;5035962;28;19928;-77
2022/08/22 08:29:26;;;;;;;;;;;24.70;92.50;;;;;;5036246;28;19921;-76
2022/08/22 08:31:53;;;;;;;;;;;24.70;92.40;;;;;;5036412;28;19917;-75
2022/08/22 08:34:21;;;;;;;;;;;24.70;92.30;;;;;;5036452;28;19978;-75
2022/08/22 08:36:51;;;;;;;;;;;24.70;92.30;;;;;;5036065;28;20376;-75
2022/08/22 08:39:21;;;;;;;;;;;24.70;92.20;;;;;;5035938;28;19993;-76
2022/08/22 08:42:00;;;;;;;;;;;24.70;92.20;;;;;;5035627;28;20023;-75
2022/08/22 08:44:38;;;;;;;;;;;24.70;92.10;;;;;;5035807;28;19921;-76
2022/08/22 08:47:29;;;;;;;;;;;24.70;92.10;;;;;;5035616;28;19927;-77
2022/08/22 08:50:10;;;;;;;;;;;24.70;92.00;;;;;;5020007;28;19928;-76
2022/08/22 08:52:57;;;;;;;;;;;24.70;92.00;;;;;;5035365;28;19927;-77
2022/08/22 08:55:30;;;;;;;;;;;24.70;91.90;;;;;;5036322;28;19921;-78
2022/08/22 08:58:03;;;;;;;;;;;24.70;91.80;;;;;;5037995;28;20001;-78
2022/08/22 09:00:44;;;;;;;;;;;24.70;91.70;;;;;;5038648;28;19921;-77
2022/08/22 09:03:13;;;;;;;;;;;24.70;91.60;;;;;;5038396;28;20438;-77
2022/08/22 09:05:54;;;;;;;;;;;24.70;91.50;;;;;;5038740;28;19964;-75
2022/08/22 09:08:26;;;;;;;;;;;24.70;91.50;;;;;;5037912;28;19927;-77
2022/08/22 09:11:06;;;;;;;;;;;24.70;91.30;;;;;;5037902;28;19925;-77
2022/08/22 09:13:44;;;;;;;;;;;24.70;91.20;;;;;;5038009;28;19951;-77
2022/08/22 09:16:31;;;;;;;;;;;24.70;91.10;;;;;;5038133;28;19925;-77
2022/08/22 09:19:14;;;;;;;;;;;24.70;91.00;;;;;;5036389;28;19921;-77
2022/08/22 09:21:49;;;;;;;;;;;24.70;90.80;;;;;;5036869;28;19964;-76
2022/08/22 09:24:33;;;;;;;;;;;24.70;90.60;;;;;;5038453;28;19921;-76
2022/08/22 09:27:06;;;;;;;;;;;24.70;90.40;;;;;;5037144;28;20011;-77
2022/08/22 09:29:39;;;;;;;;;;;24.70;90.10;;;;;;5037356;28;19960;-76
2022/08/22 09:32:09;;;;;;;;;;;24.60;90.00;;;;;;5037246;28;19921;-76
2022/08/22 09:34:39;;;;;;;;;;;24.60;89.70;;;;;;5037079;28;19979;-76
2022/08/22 09:37:15;;;;;;;;;;;24.60;89.30;;;;;;5037434;28;19952;-76
2022/08/22 09:39:48;;;;;;;;;;;24.60;88.90;;;;;;5037488;28;19921;-76
2022/08/22 09:42:20;;;;;;;;;;;24.60;88.40;;;;;;5037742;28;19921;-77
2022/08/22 09:44:55;;;;;;;;;;;24.60;87.80;;;;;;5037545;28;19921;-76
2022/08/22 09:47:24;;;;;;;;;;;24.60;87.40;;;;;;5038232;28;19970;-77
2022/08/22 09:49:54;;;;;;;;;;;24.60;86.90;;;;;;5037875;28;20016;-77
2022/08/22 09:52:26;;;;;;;;;;;24.60;86.50;;;;;;5038068;28;19927;-76
2022/08/22 09:54:56;;;;;;;;;;;24.60;86.10;;;;;;5038032;28;19947;-76
2022/08/22 09:57:32;;;;;;;;;;;24.60;85.70;;;;;;5037236;28;20009;-76
2022/08/22 10:00:13;;;;;;;;;;;24.60;85.30;;;;;;5037664;28;20015;-76
2022/08/22 10:02:44;;;;;;;;;;;24.60;84.70;;;;;;5037887;28;19921;-77
2022/08/22 10:05:13;;;;;;;;;;;24.60;84.50;;;;;;5037916;28;19921;-76
2022/08/22 10:07:54;;;;;;;;;;;24.60;84.20;;;;;;5037021;28;19921;-76
2022/08/22 10:10:32;;;;;;;;;;;24.60;83.50;;;;;;5035820;28;20016;-79
2022/08/22 10:13:04;;;;;;;;;;;24.60;82.90;;;;;;5038503;28;19952;-79
2022/08/22 10:15:34;;;;;;;;;;;24.60;82.40;;;;;;5038428;28;19921;-79
2022/08/22 10:18:06;;;;;;;;;;;24.60;81.90;;;;;;5038403;28;20008;-79
2022/08/22 10:20:36;;;;;;;;;;;24.60;81.40;;;;;;5037333;28;19972;-76
2022/08/22 10:23:08;;;;;;;;;;;24.60;80.80;;;;;;5037850;28;20462;-79
2022/08/22 10:25:37;;;;;;;;;;;24.60;80.20;;;;;;5036811;28;19921;-79
2022/08/22 10:28:27;;;;;;;;;;;24.50;79.50;;;;;;5035787;28;20005;-80
2022/08/22 10:31:00;;;;;;;;;;;24.50;78.90;;;;;;5037074;28;20315;-81
2022/08/22 10:33:31;;;;;;;;;;;24.50;78.50;;;;;;5037234;28;19979;-82
2022/08/22 10:36:02;;;;;;;;;;;24.50;78.10;;;;;;5036339;28;20019;-80
2022/08/22 10:38:31;;;;;;;;;;;24.50;77.60;;;;;;5037086;28;19920;-80
2022/08/22 10:41:03;;;;;;;;;;;24.60;77.10;;;;;;5039099;28;19920;-80
2022/08/22 10:43:36;;;;;;;;;;;24.60;76.70;;;;;;5039397;28;19921;-80
2022/08/22 10:46:05;;;;;;;;;;;24.60;76.10;;;;;;5039459;28;19928;-80
2022/08/22 10:48:33;;;;;;;;;;;24.60;75.70;;;;;;5039251;28;19920;-80
2022/08/22 10:51:05;;;;;;;;;;;24.60;75.10;;;;;;5039624;28;19979;-80
2022/08/22 10:53:36;;;;;;;;;;;24.60;74.50;;;;;;5039409;28;19921;-80
2022/08/22 10:56:08;;;;;;;;;;;24.60;74.10;;;;;;5038677;28;19940;-80
2022/08/22 10:58:38;;;;;;;;;;;24.60;73.50;;;;;;5039227;28;19921;-79
2022/08/22 11:01:07;;;;;;;;;;;24.60;72.70;;;;;;5039237;28;19921;-81
2022/08/22 11:03:37;;;;;;;;;;;24.60;72.70;;;;;;5039317;28;19999;-81
2022/08/22 11:06:06;;;;;;;;;;;24.60;72.30;;;;;;5038676;28;20392;-80
2022/08/22 11:08:39;;;;;;;;;;;24.60;71.90;;;;;;5038516;28;19931;-80
2022/08/22 11:11:10;;;;;;;;;;;24.60;71.50;;;;;;5038713;28;19995;-80
2022/08/22 11:13:42;;;;;;;;;;;24.60;71.40;;;;;;5038806;28;20011;-82
2022/08/22 11:16:17;;;;;;;;;;;24.70;70.60;;;;;;5039049;28;19944;-82
2022/08/22 11:18:57;;;;;;;;;;;24.70;70.00;;;;;;5038432;28;19925;-81
2022/08/22 11:21:27;;;;;;;;;;;24.60;69.50;;;;;;5038216;28;19932;-81
2022/08/22 11:23:58;;;;;;;;;;;24.70;69.20;;;;;;5038312;28;19928;-81
2022/08/22 11:26:29;;;;;;;;;;;24.70;68.80;;;;;;5038829;28;19928;-82
2022/08/22 11:29:02;;;;;;;;;;;24.70;68.30;;;;;;5038289;28;19927;-81
2022/08/22 11:31:35;;;;;;;;;;;24.70;67.80;;;;;;5039065;28;20317;-82
2022/08/22 11:34:05;;;;;;;;;;;24.70;67.40;;;;;;5038437;28;20016;-81
2022/08/22 11:36:35;;;;;;;;;;;24.70;66.80;;;;;;5038970;28;19921;-81
2022/08/22 11:39:09;;;;;;;;;;;24.70;66.80;;;;;;5038523;28;20376;-82
2022/08/22 11:41:39;;;;;;;;;;;24.70;66.70;;;;;;5038293;28;19956;-82
2022/08/22 11:44:09;;;;;;;;;;;24.70;66.20;;;;;;5038020;28;19959;-82
2022/08/22 11:46:37;;;;;;;;;;;24.70;65.90;;;;;;5038887;28;20020;-82
2022/08/22 11:49:13;;;;;;;;;;;24.70;65.60;;;;;;5036002;28;19925;-81
2022/08/22 11:51:54;;;;;;;;;;;24.70;65.30;;;;;;5037793;28;19927;-81
2022/08/22 11:54:24;;;;;;;;;;;24.70;64.80;;;;;;5037377;28;20104;-81
2022/08/22 11:56:58;;;;;;;;;;;24.70;64.40;;;;;;5037704;28;19927;-81
2022/08/22 11:59:29;;;;;;;;;;;24.70;64.00;;;;;;5038243;28;19921;-82
2022/08/22 12:01:58;;;;;;;;;;;24.70;63.60;;;;;;5037776;28;19920;-81
2022/08/22 12:04:30;;;;;;;;;;;24.70;63.40;;;;;;5037214;28;19921;-80
2022/08/22 12:06:59;;;;;;;;;;;24.70;62.90;;;;;;5037896;28;20019;-79
2022/08/22 12:09:28;;;;;;;;;;;24.70;62.60;;;;;;5038522;28;20309;-79
2022/08/22 12:11:59;;;;;;;;;;;24.70;62.20;;;;;;5038012;28;20004;-79
2022/08/22 12:14:30;;;;;;;;;;;24.70;61.90;;;;;;5038071;28;20008;-79
2022/08/22 12:17:02;;;;;;;;;;;24.70;61.40;;;;;;5038034;28;20015;-80
2022/08/22 12:19:31;;;;;;;;;;;24.70;60.90;;;;;;5038010;28;19921;-79
2022/08/22 12:22:16;;;;;;;;;;;24.70;60.70;;;;;;5037657;28;19921;-79
2022/08/22 12:24:52;;;;;;;;;;;24.70;60.70;;;;;;5037113;28;19975;-79
2022/08/22 12:27:29;;;;;;;;;;;24.70;60.70;;;;;;5037933;28;19921;-80
2022/08/22 12:30:07;;;;;;;;;;;24.70;60.20;;;;;;5037663;28;19921;-80
2022/08/22 12:32:51;;;;;;;;;;;24.70;59.80;;;;;;5037294;28;20019;-79
2022/08/22 12:35:24;;;;;;;;;;;24.70;59.60;;;;;;5006925;28;19956;-80
2022/08/22 12:37:54;;;;;;;;;;;24.70;59.30;;;;;;5037180;28;19921;-80
2022/08/22 12:40:26;;;;;;;;;;;24.70;59.20;;;;;;5036585;28;20273;-80
2022/08/22 12:43:00;;;;;;;;;;;24.70;59.00;;;;;;5037962;28;19921;-80
2022/08/22 12:45:45;;;;;;;;;;;24.70;58.70;;;;;;5037633;28;20351;-80
2022/08/22 12:48:20;;;;;;;;;;;24.70;58.50;;;;;;5036341;28;19971;-79
2022/08/22 12:50:49;;;;;;;;;;;24.70;58.30;;;;;;5037162;28;19931;-79
2022/08/22 12:53:25;;;;;;;;;;;24.80;58.20;;;;;;5036995;28;19921;-79
2022/08/22 12:56:07;;;;;;;;;;;24.80;58.00;;;;;;5037315;28;19943;-79
2022/08/22 12:58:52;;;;;;;;;;;24.80;57.80;;;;;;5041403;28;19925;-80
2022/08/22 13:01:21;;;;;;;;;;;24.80;57.50;;;;;;5038619;28;19964;-80
2022/08/22 13:03:48;;;;;;;;;;;24.80;57.30;;;;;;5038930;28;19967;-80
2022/08/22 13:06:36;;;;;;;;;;;24.80;57.20;;;;;;5038558;28;19921;-80
2022/08/22 13:09:10;;;;;;;;;;;24.90;57.20;;;;;;5036090;28;19947;-80
2022/08/22 13:11:38;;;;;;;;;;;24.90;57.20;;;;;;5039651;28;19944;-81
2022/08/22 13:14:06;;;;;;;;;;;24.90;57.20;;;;;;5039878;28;19925;-82
2022/08/22 13:16:37;;;;;;;;;;;25.00;57.10;;;;;;5037727;28;19921;-81
2022/08/22 13:19:06;;;;;;;;;;;25.00;57.10;;;;;;5037223;28;19933;-81
2022/08/22 13:21:35;;;;;;;;;;;25.00;57.00;;;;;;5037111;28;20372;-81
2022/08/22 13:24:04;;;;;;;;;;;25.00;56.90;;;;;;5037093;28;20388;-81
2022/08/22 13:26:31;;;;;;;;;;;25.10;56.80;;;;;;5037165;28;19960;-81
2022/08/22 13:28:59;;;;;;;;;;;25.10;56.70;;;;;;5037144;28;19921;-81
2022/08/22 13:31:28;;;;;;;;;;;25.10;56.60;;;;;;5036642;28;19921;-81
2022/08/22 13:33:59;;;;;;;;;;;25.00;56.50;;;;;;5037678;28;20015;-81
2022/08/22 13:36:26;;;;;;;;;;;25.10;56.50;;;;;;5038392;28;20026;-80
2022/08/22 13:38:56;;;;;;;;;;;25.10;56.40;;;;;;5037304;28;19920;-80
2022/08/22 13:41:25;;;;;;;;;;;25.10;56.40;;;;;;5037896;28;19947;-79
2022/08/22 13:44:10;;;;;;;;;;;25.10;56.30;;;;;;5037891;28;20016;-79
2022/08/22 13:46:37;;;;;;;;;;;25.10;56.30;;;;;;5037926;28;20029;-80
2022/08/22 13:49:06;;;;;;;;;;;25.10;56.30;;;;;;5037311;28;19929;-78
2022/08/22 13:51:38;;;;;;;;;;;25.10;56.30;;;;;;5036970;28;20007;-80
2022/08/22 13:54:07;;;;;;;;;;;25.10;56.40;;;;;;5034669;28;20395;-79
2022/08/22 13:56:39;;;;;;;;;;;25.10;57.00;;;;;;5034800;28;19931;-79
2022/08/22 13:59:07;;;;;;;;;;;25.10;56.40;;;;;;5034638;28;20365;-78
2022/08/22 14:01:37;;;;;;;;;;;25.20;56.50;;;;;;5035106;28;20395;-78
2022/08/22 14:04:12;;;;;;;;;;;25.20;56.50;;;;;;5035295;28;19925;-78
2022/08/22 14:06:43;;;;;;;;;;;25.20;56.50;;;;;;5034967;28;19964;-79
2022/08/22 14:09:13;;;;;;;;;;;25.20;56.50;;;;;;5035036;28;19921;-80
2022/08/22 14:11:43;;;;;;;;;;;25.20;56.60;;;;;;5035213;28;19999;-79
2022/08/22 14:14:10;;;;;;;;;;;25.20;56.60;;;;;;5034888;28;20265;-79
2022/08/22 14:16:38;;;;;;;;;;;25.20;56.60;;;;;;5035408;28;19921;-79
2022/08/22 14:19:06;;;;;;;;;;;25.20;56.60;;;;;;5035711;28;19925;-79
2022/08/22 14:21:40;;;;;;;;;;;25.20;56.60;;;;;;5037336;28;19928;-79
2022/08/22 14:24:11;;;;;;;;;;;25.20;56.60;;;;;;5037167;28;19921;-79
2022/08/22 14:26:40;;;;;;;;;;;25.20;56.60;;;;;;5037577;28;19927;-78
2022/08/22 14:29:11;;;;;;;;;;;25.20;56.60;;;;;;5037084;28;19996;-78
2022/08/22 14:31:38;;;;;;;;;;;25.20;56.60;;;;;;5037937;28;19927;-79
2022/08/22 14:34:09;;;;;;;;;;;25.20;56.60;;;;;;5037073;28;19925;-79
2022/08/22 14:36:40;;;;;;;;;;;25.20;56.60;;;;;;5037079;28;20011;-79
2022/08/22 14:39:11;;;;;;;;;;;25.20;56.70;;;;;;5036911;28;20321;-79
2022/08/22 14:41:42;;;;;;;;;;;25.20;56.80;;;;;;5037097;28;19928;-80
2022/08/22 14:44:12;;;;;;;;;;;25.30;56.90;;;;;;5036637;28;19928;-80
2022/08/22 14:46:42;;;;;;;;;;;25.30;57.00;;;;;;5041206;28;20024;-80
2022/08/22 14:49:25;;;;;;;;;;;25.30;57.00;;;;;;5040364;28;20327;-80
2022/08/22 14:51:57;;;;;;;;;;;25.20;57.00;;;;;;5042191;28;19925;-80
2022/08/22 14:54:26;;;;;;;;;;;25.30;57.20;;;;;;5047079;28;19921;-80
2022/08/22 14:56:53;;;;;;;;;;;25.30;57.30;;;;;;5045393;28;19984;-80
2022/08/22 14:59:30;;;;;;;;;;;25.30;57.40;;;;;;5045574;28;19925;-80
2022/08/22 15:02:00;;;;;;;;;;;25.30;57.60;;;;;;5046776;28;20012;-80
2022/08/22 15:04:28;;;;;;;;;;;25.30;57.70;;;;;;5047892;28;19960;-79
2022/08/22 15:06:57;;;;;;;;;;;25.30;57.80;;;;;;5048452;28;19964;-80
2022/08/22 15:09:30;;;;;;;;;;;25.30;57.90;;;;;;5049307;28;19920;-80
2022/08/22 15:11:56;;;;;;;;;;;25.30;58.00;;;;;;5049366;28;20339;-80
2022/08/22 15:14:25;;;;;;;;;;;25.30;58.10;;;;;;5049094;28;20015;-80
2022/08/22 15:16:53;;;;;;;;;;;25.30;58.30;;;;;;5048890;28;19984;-80
2022/08/22 15:19:24;;;;;;;;;;;25.30;58.40;;;;;;5050613;28;19960;-80
2022/08/22 15:21:51;;;;;;;;;;;25.30;58.50;;;;;;5049818;28;20375;-82
2022/08/22 15:24:18;;;;;;;;;;;25.30;58.70;;;;;;5044577;28;19976;-78
2022/08/22 15:26:50;;;;;;;;;;;25.30;58.80;;;;;;5045579;28;19964;-78
2022/08/22 15:29:18;;;;;;;;;;;25.30;58.90;;;;;;5044361;28;20460;-78
2022/08/22 15:31:45;;;;;;;;;;;25.30;59.00;;;;;;5044177;28;19932;-78
2022/08/22 15:34:13;;;;;;;;;;;25.30;59.10;;;;;;5041754;28;19927;-78
2022/08/22 15:36:58;;;;;;;;;;;25.30;59.30;;;;;;5042039;28;19920;-77
2022/08/22 15:39:29;;;;;;;;;;;25.30;59.40;;;;;;5044514;28;20011;-78
2022/08/22 15:41:58;;;;;;;;;;;25.30;59.60;;;;;;5041987;28;19924;-79
2022/08/22 15:44:26;;;;;;;;;;;25.30;59.70;;;;;;5038752;28;20016;-78
2022/08/22 15:46:59;;;;;;;;;;;25.30;59.80;;;;;;5038722;28;20019;-79
2022/08/22 15:49:27;;;;;;;;;;;25.30;60.00;;;;;;5038105;28;19924;-80
2022/08/22 15:52:04;;;;;;;;;;;25.30;60.10;;;;;;5044018;28;19981;-79
2022/08/22 15:54:51;;;;;;;;;;;25.30;60.20;;;;;;5041022;28;19921;-79
2022/08/22 15:57:23;;;;;;;;;;;25.30;60.40;;;;;;5040945;28;19921;-79
2022/08/22 15:59:52;;;;;;;;;;;25.30;60.50;;;;;;5040899;28;19999;-80
2022/08/22 16:02:24;;;;;;;;;;;25.30;60.80;;;;;;5043870;28;19928;-79
2022/08/22 16:04:54;;;;;;;;;;;25.30;60.90;;;;;;5043096;28;19971;-80
2022/08/22 16:07:26;;;;;;;;;;;25.30;61.10;;;;;;5040760;28;20448;-80
2022/08/22 16:09:54;;;;;;;;;;;25.30;61.20;;;;;;5045392;28;20016;-80
2022/08/22 16:12:29;;;;;;;;;;;25.30;61.30;;;;;;5043151;28;19925;-80
2022/08/22 16:14:55;;;;;;;;;;;25.30;61.30;;;;;;5041482;28;19956;-78
2022/08/22 16:17:40;;;;;;;;;;;25.30;61.20;;;;;;5040134;28;20015;-78
2022/08/22 16:20:26;;;;;;;;;;;25.30;61.20;;;;;;5037818;28;20398;-78
2022/08/22 16:23:06;;;;;;;;;;;25.30;61.20;;;;;;5039473;28;20016;-79
2022/08/22 16:25:52;;;;;;;;;;;25.30;61.40;;;;;;5038863;28;20467;-79
2022/08/22 16:28:22;;;;;;;;;;;25.20;61.50;;;;;;5037005;28;19921;-78
2022/08/22 16:30:49;;;;;;;;;;;25.20;61.60;;;;;;5039742;28;19920;-78
2022/08/22 16:33:28;;;;;;;;;;;25.30;61.70;;;;;;5040908;28;19984;-78
2022/08/22 16:36:23;;;;;;;;;;;25.20;61.70;;;;;;5040884;28;19925;-79
2022/08/22 16:38:51;;;;;;;;;;;25.20;61.70;;;;;;5039501;28;19925;-79
2022/08/22 16:41:32;;;;;;;;;;;25.20;61.80;;;;;;5038297;28;19972;-79
2022/08/22 16:44:32;;;;;;;;;;;25.20;61.90;;;;;;5037341;28;19971;-79
2022/08/22 16:47:07;;;;;;;;;;;25.20;62.60;;;;;;5036990;28;19963;-78
2022/08/22 16:49:36;;;;;;;;;;;25.20;61.90;;;;;;5036376;28;20273;-79
2022/08/22 16:52:21;;;;;;;;;;;25.10;61.80;;;;;;5035694;28;19921;-79
2022/08/22 16:54:49;;;;;;;;;;;25.10;61.80;;;;;;5036154;28;19928;-79
2022/08/22 16:57:19;;;;;;;;;;;25.10;61.80;;;;;;5036078;28;19928;-78
2022/08/22 17:00:09;;;;;;;;;;;25.10;61.90;;;;;;5036000;28;20004;-78
2022/08/22 17:02:46;;;;;;;;;;;25.10;61.80;;;;;;5031333;28;19927;-78
2022/08/22 17:05:29;;;;;;;;;;;25.10;61.90;;;;;;5036693;28;19920;-78
2022/08/22 17:08:16;;;;;;;;;;;25.10;62.00;;;;;;5037143;28;19945;-79
2022/08/22 17:10:50;;;;;;;;;;;25.10;62.00;;;;;;5032846;28;19964;-79
2022/08/22 17:13:24;;;;;;;;;;;25.10;62.00;;;;;;5037971;28;19975;-80
2022/08/22 17:15:59;;;;;;;;;;;25.10;62.00;;;;;;5037855;28;20019;-81
2022/08/22 17:18:42;;;;;;;;;;;25.10;62.00;;;;;;5037699;28;20388;-80
2022/08/22 17:21:12;;;;;;;;;;;25.10;62.00;;;;;;5037714;28;19928;-80
2022/08/22 17:23:44;;;;;;;;;;;25.10;62.10;;;;;;5037469;28;19921;-81
2022/08/22 17:26:18;;;;;;;;;;;25.10;62.10;;;;;;5041787;28;19980;-82
2022/08/22 17:28:51;;;;;;;;;;;25.10;62.10;;;;;;5038610;28;19928;-81
2022/08/22 17:31:25;;;;;;;;;;;25.10;62.10;;;;;;5038016;28;20015;-81
2022/08/22 17:34:00;;;;;;;;;;;25.10;62.10;;;;;;5037686;28;19928;-81
2022/08/22 17:36:31;;;;;;;;;;;25.10;62.10;;;;;;5037290;28;19925;-81
2022/08/22 17:39:03;;;;;;;;;;;25.10;62.10;;;;;;5037354;28;19928;-81
2022/08/22 17:41:34;;;;;;;;;;;25.10;62.10;;;;;;5037220;28;20314;-81
2022/08/22 17:44:04;;;;;;;;;;;25.10;62.10;;;;;;5037452;28;20369;-81
2022/08/22 17:46:34;;;;;;;;;;;25.10;62.10;;;;;;5037167;28;19921;-81
2022/08/22 17:49:12;;;;;;;;;;;25.10;62.10;;;;;;5036733;28;19943;-82
2022/08/22 17:51:42;;;;;;;;;;;25.10;62.10;;;;;;5037588;28;19921;-81
2022/08/22 17:54:14;;;;;;;;;;;25.10;62.10;;;;;;5038300;28;19992;-81
2022/08/22 17:56:43;;;;;;;;;;;25.10;62.20;;;;;;5037815;28;20334;-81
2022/08/22 17:59:12;;;;;;;;;;;25.10;62.20;;;;;;5037267;28;20288;-81
2022/08/22 18:01:43;;;;;;;;;;;25.10;62.10;;;;;;5037969;28;19921;-81
2022/08/22 18:04:16;;;;;;;;;;;25.10;62.20;;;;;;5036900;28;20295;-81
2022/08/22 18:06:46;;;;;;;;;;;25.10;62.20;;;;;;5037213;28;19921;-80
2022/08/22 18:09:19;;;;;;;;;;;25.00;62.10;;;;;;5037116;28;19943;-82
2022/08/22 18:11:49;;;;;;;;;;;25.00;62.10;;;;;;5036435;28;19920;-81
2022/08/22 18:14:24;;;;;;;;;;;25.00;62.10;;;;;;5036303;28;19943;-81
2022/08/22 18:16:52;;;;;;;;;;;25.00;62.10;;;;;;5036892;28;19943;-81
2022/08/22 18:19:33;;;;;;;;;;;25.00;62.10;;;;;;5036912;28;19921;-81
2022/08/22 18:22:03;;;;;;;;;;;25.00;62.10;;;;;;5036679;28;19927;-81
2022/08/22 18:24:31;;;;;;;;;;;25.00;62.10;;;;;;5036750;28;19952;-81
2022/08/22 18:27:01;;;;;;;;;;;25.00;62.10;;;;;;5036405;28;19975;-81
2022/08/22 18:29:31;;;;;;;;;;;25.00;62.10;;;;;;5036595;28;19925;-81
2022/08/22 18:32:03;;;;;;;;;;;25.00;62.20;;;;;;5036363;28;20023;-81
2022/08/22 18:34:35;;;;;;;;;;;25.00;62.20;;;;;;5036257;28;20368;-80
2022/08/22 18:37:03;;;;;;;;;;;25.00;62.20;;;;;;5037670;28;19979;-81
2022/08/22 18:39:33;;;;;;;;;;;25.00;62.30;;;;;;5036471;28;19927;-81
2022/08/22 18:42:03;;;;;;;;;;;25.00;62.30;;;;;;5036039;28;19921;-81
2022/08/22 18:44:32;;;;;;;;;;;25.00;62.30;;;;;;5036090;28;20368;-82
2022/08/22 18:47:00;;;;;;;;;;;25.00;62.40;;;;;;5036176;28;19964;-81
2022/08/22 18:49:40;;;;;;;;;;;25.00;62.40;;;;;;5036114;28;19931;-83
2022/08/22 18:52:12;;;;;;;;;;;25.00;62.40;;;;;;5037404;28;19924;-83
2022/08/22 18:54:44;;;;;;;;;;;25.00;62.50;;;;;;5036860;28;19971;-83
2022/08/22 18:57:24;;;;;;;;;;;25.00;62.50;;;;;;5036544;28;19921;-82
2022/08/22 19:00:03;;;;;;;;;;;25.00;62.60;;;;;;5039370;28;19921;-82
2022/08/22 19:02:48;;;;;;;;;;;25.00;62.60;;;;;;5039881;28;20365;-82
2022/08/22 19:05:23;;;;;;;;;;;25.00;62.70;;;;;;5040231;28;19921;-82
2022/08/22 19:08:05;;;;;;;;;;;25.00;62.80;;;;;;5040336;28;19927;-82
2022/08/22 19:10:47;;;;;;;;;;;25.00;62.80;;;;;;5037447;28;20015;-82
2022/08/22 19:13:28;;;;;;;;;;;25.00;62.90;;;;;;5036984;28;19920;-82
2022/08/22 19:16:02;;;;;;;;;;;25.00;62.90;;;;;;5037550;28;19960;-82
2022/08/22 19:18:35;;;;;;;;;;;25.00;63.00;;;;;;5040566;28;20349;-83
2022/08/22 19:24:06;;;;;;;;;;;25.00;63.20;;;;;;5039903;28;20288;-82
2022/08/22 19:26:35;;;;;;;;;;;25.00;63.30;;;;;;5040482;28;19921;-81
2022/08/22 19:29:29;;;;;;;;;;;25.00;63.40;;;;;;5041204;28;19928;-81
2022/08/22 19:31:58;;;;;;;;;;;25.00;63.60;;;;;;5041021;28;19921;-81
2022/08/22 19:34:37;;;;;;;;;;;25.00;63.70;;;;;;5042270;28;19936;-82
2022/08/22 19:37:22;;;;;;;;;;;25.00;63.80;;;;;;5042226;28;19979;-81